Colona, Colorado
Current Conditions -  °F | °C
As of 4:53 PM on Thursday 27 Nov 2014 (Local Time) from KMTJ Reporting Station
Clear Clear  
Wind Chill: 50°   Ceiling: Unl
Heat Index: 50°   Visibility: 10mi
Dew Point: 24°   Wind: 3mph
Humidity: 36%   Direction: 10°N
Pressure: 30.34"   Gusts: NA
Location:  38.4027°N, 107.89°W
Report Text: KMTJ 272353Z AUTO 01003KT 10SM CLR 10/M04 A3034 RMK AO2 SLP266 T01001044 10133 20072 55006
Loading
Personal Weather Stations






























Interactive Weather Map New forecast layout! Learn more

10-Day Weather Forecast

Advertisements
Track Severe Weather on mobile